AirNav   TITAN Aviation Fuels
 
 941 users online  

CN15 Vineyard Oaks Farm Airport
Lemoore, California, USA

GOING TO LEMOORE?


FAA INFORMATION EFFECTIVE 01 DECEMBER 2022

Location

FAA Identifier: CN15
Lat/Long: 36-22-05.3900N 119-47-05.9800W
36-22.089833N 119-47.099667W
36.3681639,-119.7849944
(estimated)
Elevation: 210 ft. / 64 m (estimated)
From city: 4 miles N of LEMOORE, CA
Time zone: UTC -8 (UTC -7 during Daylight Saving Time)
Zip code: 93245

Airport Operations

Airport use: Private use. Permission required prior to landing
Activation date: 07/2003
Control tower: no
ARTCC: OAKLAND CENTER
FSS: RANCHO MURIETA FLIGHT SERVICE STATION
Attendance: UNATNDD
Wind indicator: yes
Segmented circle: no

Airport Communications

WX ASOS at HJO (8 nm E): 134.75 (559-585-8076)
WX AWOS-3 at NLC (8 nm W): 121.575 (559-998-2336)
WX AWOS-3PT at VIS (19 nm E): 119.925 (559-651-2418)

Nearby radio navigation aids

NDB name  Hdg/Dist  Freq  Var  ID
SALYER FARMS310/21.920516ECOR -.-. --- .-.

Airport Services

Runway Information

Runway 16/34

Dimensions: 2180 x 50 ft. / 664 x 15 m
Surface: turf
RUNWAY 16  RUNWAY 34
Traffic pattern: leftleft
Displaced threshold: 360 ft.
DSPLCD THLD RY 16 MARKED WITH PVC PIPE.
no
Obstructions: 33 ft. pline, 600 ft. from runwaynone

Airport Ownership and Management from official FAA records

Ownership: Privately-owned
Owner: VINEYARD OAKS FARM LLC
7380 18TH AVE.
LEMOORE, CA 93245
Phone 559-410-1610
Manager: WILEY W. ELICK
7380 18TH AVE.
LEMOORE, CA 93245
Phone (559) 410-1610

Airport Operational Statistics

Aircraft based on the field: 2
Single engine airplanes: 1
Multi engine airplanes: 1
    

Additional Remarks

FOR CD CTC OAKLAND ARTCC AT 510-745-3380.

Instrument Procedures

There are no published instrument procedures at CN15.

Some nearby airports with instrument procedures:

KHJO - Hanford Municipal Airport (8 nm E)
KNLC - Lemoore Naval Air Station (Reeves Field) (8 nm W)
KVIS - Visalia Municipal Airport (19 nm E)
KFCH - Fresno Chandler Executive Airport (22 nm N)
O32 - Reedley Municipal Airport (24 nm NE)
 
Loc | Ops | Rwys | IFR | FBO | Links
Com | Nav | Svcs | Stats | Notes
Area around CN15 (Vineyard Oaks Farm Airport)
 
Road maps at: MapQuest Bing Google
 
Aerial photo
No photo
 
Sectional chart

 
Airport distance calculator
Flying to Vineyard Oaks Farm Airport? Find the distance to fly.

From to CN15

Sunrise and sunset
Times for 06-Dec-2022
 Local
(UTC-8)
 Zulu
(UTC)
Morning civil twilight06:2914:29
Sunrise06:5814:58
Sunset16:4300:43
Evening civil twilight17:1101:11

Current date and time
Zulu (UTC)  07-Dec-2022 04:52:54
Local (UTC-8)  06-Dec-2022 20:52:54
 
METAR
KNLC 
9nm W 
070356Z 33011KT 10SM FEW070 OVC110 10/08 A3008 RMK AO2 RAE00 TSE26 SLP188 SHRA DSNT N RH/86 P0000 T01000078
KHJO 
9nm E 
070353Z AUTO 00000KT 10SM SCT033 SCT047 BKN075 11/07 A3009 RMK AO2 SLP192 T01110072
KVIS 
19nm E 
070356Z AUTO 27006KT 10SM -RA SCT036 SCT046 BKN095 11/08 A3009 RMK AO2 TSB17E39RAB53 SLP197 P0000 T01110083
TAF
KNLC 
9nm W 
0704/0723 VRB06KT 9999 VCTS SCT035 BKN080 BKN230 640808 531809 532709 QNH3008INS TEMPO 0704/0706 33012G20KT 6000 TSRA BR BKN025 BKN040CB OVC090 FM070600 33010KT 9999 NSW FEW019 SCT044 BKN130 BKN230 640808 531809 532709 QNH3009INS BECMG 0707/0708 VRB06KT 4800 BR SCT008 BKN044 640808 531809 532709 QNH3010INS FM071000 VRB04KT 2400 BR BKN008 600000 500000 QNH3008INS TEMPO 0711/0715 0400 FG VV002 FM071700 VRB03KT 4000 BR BKN008 QNH3015INS T04/0714Z T15/0723Z AMD 0420 FS30184
KVIS 
19nm E 
070324Z 0703/0724 VRB04KT P6SM BKN050 OVC100 TEMPO 0703/0705 4SM -TSRA OVC050CB FM070900 VRB04KT 4SM BR SCT250 FM071300 VRB04KT 2SM BR SCT250 TEMPO 0713/0717 3/4SM BR FM071700 VRB04KT 4SM BR SCT250 FM071900 VRB04KT P6SM SCT250
NOTAMs
Click for the latest NOTAMs
NOTAMs are issued by the DoD/FAA and will open in a separate window not controlled by AirNav.

 

 
 

Would you like to see your business listed on this page?

 If your business provides an interesting product or service to pilots, flight crews, aircraft, or users of the Vineyard Oaks Farm Airport, you should consider listing it here.  To start the listing process, click on the button below
 
Add a business
 

Other Pages about Vineyard Oaks Farm Airport

Update a link
 
Copyright © AirNav, LLC. All rights reserved. Privacy Policy  Contact